Impacts TAF Board
For situational awareness. Not to be used for flight planning purposes.
IDs:

KMCO - Orlando Intl, FL, US

Issued at 1135 UTC 05 Apr 2020
Updated at 1410 UTC 05 Apr 2020
Potential Impact None Slight Moderate High
Time1353Z 05/15Z 05/16Z 05/17Z 05/18Z 05/19Z 05/20Z 05/21Z 05/22Z 05/23Z 06/00Z 06/01Z 06/02Z 06/03Z>>
Type OBS PRVL
  [TEMP]  
PRVL PRVL PRVL PRVL PRVL PRVL PRVL PRVL PRVL PRVL PRVL PRVL
VIS 10 >6
  [6]  
>6 >6 >6 >6 >6 >6 >6 >6 >6 >6 >6 >6
CIG 110 100
  [100]  
100 80 80 80 80 80 80 80 80 80 50 50
Cover BKN BKN
  [BKN]  
BKN BKN BKN BKN BKN BKN BKN BKN BKN BKN OVC OVC
FltCat VFR VFR
  [VFR]  
VFR VFR VFR VFR VFR VFR VFR VFR VFR VFR VFR VFR
WX -- VCSH
  [-SHRA]  
VCSH VCSH VCSH VCSH VCSH VCSH VCSH VCSH VCSH VCSH -- --
WDir 310 280
[280]
280 50 50 50 50 50 50 50 50 50 60 60
WSpd 7 7
  [7]  
7 8 8 8 8 8 8 8 8 8 4 4
WGst -- --
  [--]  
-- -- -- -- -- -- -- -- -- -- -- --
Raw TAF
KMCO 051135Z 0512/0618 28007KT P6SM VCSH SCT030 BKN100
  TEMPO 0513/0516 6SM -SHRA
  FM051700 05008KT P6SM VCSH SCT030 BKN080
  FM060200 06004KT P6SM SCT030 BKN050 OVC100


Raw METAR
KMCO 051353Z 31007KT 10SM FEW046 SCT090 BKN110 23/13 A3002 RMK AO2 RAB17E32 SLP164 P0000 T02280133
KMCO 051253Z 32005KT 10SM SCT050 SCT085 BKN120 22/14 A3000 RMK AO2 RAB16E30 SLP156 P0000 T02170139
KMCO 051153Z 31006KT 10SM BKN060 BKN080 OVC110 22/13 A2998 RMK AO2 SLP150 T02170133 10217 20206 53026

METAR Board
Radar Display
Forecast Discussion
For situational awareness. Not to be used for flight planning purposes.